createdAt,value
2019-04-23T00:02:30.540Z,95293.45
2019-04-23T00:07:48.372Z,95304.63
2019-04-23T00:12:49.791Z,95296.81
2019-04-23T00:18:15.212Z,95311.09
2019-04-23T00:23:07.777Z,95300.78
2019-04-23T00:28:24.392Z,95311.45
2019-04-23T00:43:41.005Z,95327.04
2019-04-23T00:48:54.265Z,95328.37
2019-04-23T00:53:43.799Z,95312.33
2019-04-23T00:58:56.447Z,95316.51
2019-04-23T01:04:18.585Z,95322.16
2019-04-23T01:09:08.826Z,95323.55
2019-04-23T01:14:20.263Z,95330.64
2019-04-23T01:19:44.485Z,95323.86
2019-04-23T01:24:34.464Z,95329.29
2019-04-23T01:40:18.805Z,95361.73
2019-04-23T01:45:24.217Z,95352.85
2019-04-23T01:50:37.598Z,95357.27
2019-04-23T01:55:44.074Z,95389.02
2019-04-23T02:00:46.912Z,95376.83
2019-04-23T02:11:02.929Z,95384.69
2019-04-23T02:16:14.583Z,95379.55
2019-04-23T02:21:36.602Z,95393.88
2019-04-23T02:26:36.858Z,95393.88
2019-04-23T02:42:20.848Z,95405.50
2019-04-23T02:47:17.431Z,95403.39
2019-04-23T02:52:21.248Z,95398.50
2019-04-23T02:57:28.969Z,95402.04
2019-04-23T03:02:41.360Z,95395.77
2019-04-23T03:12:59.180Z,95383.61
2019-04-23T03:23:34.380Z,95385.48
2019-04-23T03:28:42.938Z,95386.31
2019-04-23T03:43:46.564Z,95382.23
2019-04-23T03:48:59.511Z,95390.07
2019-04-23T03:54:31.924Z,95411.95
2019-04-23T03:59:29.163Z,95411.70
2019-04-23T04:14:46.710Z,95443.92
2019-04-23T04:24:59.068Z,95465.31
2019-04-23T04:40:33.155Z,95479.71
2019-04-23T04:45:42.297Z,95487.83
2019-04-23T04:50:49.305Z,95481.28
2019-04-23T05:01:08.469Z,95477.95
2019-04-23T05:11:19.643Z,95505.58
2019-04-23T05:16:19.721Z,95504.19
2019-04-23T05:21:26.535Z,95514.18
2019-04-23T05:31:32.502Z,95520.72
2019-04-23T05:36:49.884Z,95509.70
2019-04-23T05:41:55.771Z,95522.14
2019-04-23T05:47:00.558Z,95527.89
2019-04-23T05:52:07.490Z,95521.03
2019-04-23T05:57:13.737Z,95519.31
2019-04-23T06:02:18.203Z,95523.42
2019-04-23T06:12:42.299Z,95539.95
2019-04-23T06:17:47.537Z,95546.94
2019-04-23T06:28:01.793Z,95541.06
2019-04-23T06:33:08.798Z,95546.33
2019-04-23T06:38:34.420Z,95552.81
2019-04-23T06:43:24.324Z,95551.21
2019-04-23T06:48:35.155Z,95555.73
2019-04-23T06:53:40.420Z,95538.22
2019-04-23T06:58:43.250Z,95556.75
2019-04-23T07:04:05.587Z,95560.64
2019-04-23T07:14:22.978Z,95574.36
2019-04-23T07:19:37.174Z,95584.98
2019-04-23T07:24:21.494Z,95580.80
2019-04-23T07:29:30.864Z,95583.45
2019-04-23T07:34:41.468Z,95582.95
2019-04-23T07:40:11.269Z,95584.53
2019-04-23T07:45:12.507Z,95597.16
2019-04-23T07:50:22.900Z,95593.23
2019-04-23T07:55:36.255Z,95592.02
2019-04-23T08:00:45.163Z,95583.77
2019-04-23T08:05:49.734Z,95589.00
2019-04-23T08:11:01.490Z,95600.25
2019-04-23T08:15:57.406Z,95603.58
2019-04-23T08:21:00.868Z,95627.33
2019-04-23T08:36:51.822Z,95628.07
2019-04-23T08:42:09.523Z,95625.34
2019-04-23T08:47:17.181Z,95630.42
2019-04-23T08:52:18.271Z,95635.77
2019-04-23T09:08:05.198Z,95633.16
2019-04-23T09:13:32.128Z,95625.14
2019-04-23T09:17:57.848Z,95619.23
2019-04-23T09:22:57.594Z,95621.36
2019-04-23T09:28:09.106Z,95629.05
2019-04-23T09:33:41.336Z,95631.63
2019-04-23T09:38:45.085Z,95631.77
2019-04-23T09:44:27.569Z,95644.66
2019-04-23T09:49:20.858Z,95655.80
2019-04-23T09:54:27.175Z,95659.88
2019-04-23T10:04:23.539Z,95653.98
2019-04-23T10:09:20.799Z,95656.44
2019-04-23T10:14:28.287Z,95651.82
2019-04-23T10:19:35.073Z,95649.41
2019-04-23T10:24:43.440Z,95638.48
2019-04-23T10:29:49.923Z,95618.69
2019-04-23T10:40:05.732Z,95622.58
2019-04-23T10:45:47.845Z,95616.77
2019-04-23T10:56:18.312Z,95596.54
2019-04-23T11:01:21.303Z,95596.83
2019-04-23T11:06:36.822Z,95610.00
2019-04-23T11:11:34.426Z,95597.56
2019-04-23T11:26:57.998Z,95599.62
2019-04-23T11:32:19.657Z,95600.84
2019-04-23T11:37:23.158Z,95622.30
2019-04-23T11:52:35.663Z,95566.95
2019-04-23T11:57:56.851Z,95575.78
2019-04-23T12:02:57.960Z,95592.67
2019-04-23T12:13:28.382Z,95569.16
2019-04-23T12:18:35.348Z,95577.90
2019-04-23T12:23:50.326Z,95586.97
2019-04-23T12:28:43.951Z,95574.75
2019-04-23T12:33:55.340Z,95594.74
2019-04-23T12:38:56.813Z,95585.34
2019-04-23T12:44:14.888Z,95582.13
2019-04-23T12:49:40.616Z,95594.84
2019-04-23T12:54:31.800Z,95580.41
2019-04-23T12:59:30.524Z,95561.86
2019-04-23T13:04:43.920Z,95542.36
2019-04-23T13:09:55.617Z,95523.53
2019-04-23T13:14:56.020Z,95494.86
2019-04-23T13:20:04.136Z,95532.14
2019-04-23T13:25:15.990Z,95538.00
2019-04-23T13:30:25.339Z,95543.61
2019-04-23T13:40:39.481Z,95519.85
2019-04-23T13:46:00.091Z,95532.53
2019-04-23T13:56:03.739Z,95520.19
2019-04-23T14:26:39.956Z,95524.57
2019-04-23T14:31:53.289Z,95530.38
2019-04-23T14:42:24.397Z,95510.14
2019-04-23T14:57:35.118Z,95519.25
2019-04-23T15:07:42.196Z,95501.08
2019-04-23T15:26:15.740Z,95499.77
2019-04-23T15:31:00.742Z,95484.97
2019-04-23T15:36:12.779Z,95493.91
2019-04-23T15:41:10.281Z,95487.41
2019-04-23T15:46:24.123Z,95472.58
2019-04-23T15:51:30.965Z,95462.44
2019-04-23T15:56:35.930Z,95460.80
2019-04-23T16:01:35.112Z,95455.95
2019-04-23T16:06:20.987Z,95452.03
2019-04-23T16:11:48.195Z,95469.62
2019-04-23T16:17:05.093Z,95472.31
2019-04-23T16:22:09.316Z,95475.87
2019-04-23T16:27:11.048Z,95473.85
2019-04-23T16:32:31.441Z,95465.11
2019-04-23T16:37:28.854Z,95465.90
2019-04-23T16:42:39.973Z,95476.19
2019-04-23T16:47:49.055Z,95497.51
2019-04-23T16:52:51.874Z,95499.09
2019-04-23T16:58:08.446Z,95509.47
2019-04-23T17:08:35.540Z,95535.16
2019-04-23T17:13:21.170Z,95552.88
2019-04-23T17:18:31.438Z,95550.92
2019-04-23T17:29:00.363Z,95518.22
2019-04-23T17:33:59.135Z,95516.28
2019-04-23T17:39:08.186Z,95517.30
2019-04-23T17:49:30.037Z,95567.00
2019-04-23T17:54:53.489Z,95575.44
2019-04-23T18:00:21.910Z,95586.01
2019-04-23T18:05:11.061Z,95574.44
2019-04-23T18:10:21.370Z,95586.59
2019-04-23T18:15:09.581Z,95599.42
2019-04-23T18:20:23.117Z,95573.05
2019-04-23T18:25:31.831Z,95577.52
2019-04-23T18:31:06.534Z,95557.61
2019-04-23T18:36:02.436Z,95561.89
2019-04-23T18:46:22.938Z,95545.69
2019-04-23T18:51:20.950Z,95522.93
2019-04-23T18:56:58.277Z,95531.78
2019-04-23T19:01:50.144Z,95535.23
2019-04-23T19:06:44.107Z,95535.81
2019-04-23T19:12:16.054Z,95539.73
2019-04-23T19:27:37.638Z,95547.81
2019-04-23T19:32:43.613Z,95531.25
2019-04-23T19:42:55.423Z,95540.09
2019-04-23T19:53:32.212Z,95530.64
2019-04-23T19:58:27.422Z,95527.93
2019-04-23T20:08:49.414Z,95520.48
2019-04-23T20:13:49.559Z,95524.09
2019-04-23T20:24:04.665Z,95547.29
2019-04-23T20:29:19.607Z,95539.73
2019-04-23T20:39:32.729Z,95527.65
2019-04-23T20:44:50.357Z,95526.87
2019-04-23T20:49:48.561Z,95517.91
2019-04-23T21:00:01.473Z,95491.63
2019-04-23T21:05:10.215Z,95528.25
2019-04-23T21:15:40.579Z,95541.48
2019-04-23T21:31:02.255Z,95522.02
2019-04-23T21:46:20.652Z,95476.36
2019-04-23T21:51:38.484Z,95474.08
2019-04-23T21:56:37.119Z,95491.53
2019-04-23T22:01:43.609Z,95508.09
2019-04-23T22:12:07.191Z,95491.83
2019-04-23T22:17:10.235Z,95497.81
2019-04-23T22:22:12.579Z,95492.92
2019-04-23T22:27:16.236Z,95505.39
2019-04-23T22:32:39.564Z,95509.22
2019-04-23T22:37:46.308Z,95507.90
2019-04-23T22:43:02.683Z,95480.48
2019-04-23T22:47:58.445Z,95484.05
2019-04-23T22:53:02.316Z,95482.86
2019-04-23T23:03:27.717Z,95485.95
2019-04-23T23:08:44.000Z,95479.67
2019-04-23T23:14:01.111Z,95470.13
2019-04-23T23:18:58.524Z,95475.62
2019-04-23T23:24:00.156Z,95463.42
2019-04-23T23:29:00.700Z,95476.22
2019-04-23T23:39:22.695Z,95476.69
2019-04-23T23:49:44.228Z,95472.98
2019-04-23T23:54:45.171Z,95463.73
